sensor_id;sensor_type;location;lat;lon;timestamp;P1;durP1;ratioP1;P2;durP2;ratioP2
38089;SDS011;23904;52.322;10.232;2023-06-10T00:01:21;8.65;;;3.60;;
38089;SDS011;23904;52.322;10.232;2023-06-10T00:03:49;8.75;;;4.22;;
38089;SDS011;23904;52.322;10.232;2023-06-10T00:06:16;11.18;;;3.83;;
38089;SDS011;23904;52.322;10.232;2023-06-10T00:08:42;7.68;;;4.10;;
38089;SDS011;23904;52.322;10.232;2023-06-10T00:11:08;8.30;;;3.55;;
38089;SDS011;23904;52.322;10.232;2023-06-10T00:13:35;8.13;;;3.60;;
38089;SDS011;23904;52.322;10.232;2023-06-10T00:16:01;9.50;;;3.90;;
38089;SDS011;23904;52.322;10.232;2023-06-10T00:18:28;7.90;;;3.42;;
38089;SDS011;23904;52.322;10.232;2023-06-10T00:20:56;9.68;;;4.18;;
38089;SDS011;23904;52.322;10.232;2023-06-10T00:23:28;7.45;;;3.83;;
38089;SDS011;23904;52.322;10.232;2023-06-10T00:25:55;6.60;;;3.88;;
38089;SDS011;23904;52.322;10.232;2023-06-10T00:28:24;11.57;;;3.83;;
38089;SDS011;23904;52.322;10.232;2023-06-10T00:30:49;12.70;;;4.70;;
38089;SDS011;23904;52.322;10.232;2023-06-10T00:33:15;8.13;;;3.90;;
38089;SDS011;23904;52.322;10.232;2023-06-10T00:35:40;8.65;;;3.85;;
38089;SDS011;23904;52.322;10.232;2023-06-10T00:38:06;11.18;;;4.10;;
38089;SDS011;23904;52.322;10.232;2023-06-10T00:40:33;18.23;;;4.68;;
38089;SDS011;23904;52.322;10.232;2023-06-10T00:43:04;11.65;;;4.38;;
38089;SDS011;23904;52.322;10.232;2023-06-10T00:45:30;8.65;;;4.00;;
38089;SDS011;23904;52.322;10.232;2023-06-10T00:47:56;7.53;;;3.83;;
38089;SDS011;23904;52.322;10.232;2023-06-10T00:50:21;11.60;;;4.85;;
38089;SDS011;23904;52.322;10.232;2023-06-10T00:52:47;10.13;;;4.55;;
38089;SDS011;23904;52.322;10.232;2023-06-10T00:55:13;10.70;;;4.22;;
38089;SDS011;23904;52.322;10.232;2023-06-10T00:57:41;10.48;;;4.75;;
38089;SDS011;23904;52.322;10.232;2023-06-10T01:00:09;10.48;;;4.65;;
38089;SDS011;23904;52.322;10.232;2023-06-10T01:02:37;9.98;;;4.82;;
38089;SDS011;23904;52.322;10.232;2023-06-10T01:05:03;11.93;;;4.72;;
38089;SDS011;23904;52.322;10.232;2023-06-10T01:13:07;8.35;;;4.80;;
38089;SDS011;23904;52.322;10.232;2023-06-10T01:15:36;8.63;;;4.30;;
38089;SDS011;23904;52.322;10.232;2023-06-10T01:18:03;12.60;;;4.75;;
38089;SDS011;23904;52.322;10.232;2023-06-10T01:20:34;11.32;;;4.60;;
38089;SDS011;23904;52.322;10.232;2023-06-10T01:23:04;8.15;;;3.90;;
38089;SDS011;23904;52.322;10.232;2023-06-10T01:25:31;10.43;;;5.32;;
38089;SDS011;23904;52.322;10.232;2023-06-10T01:33:47;10.40;;;5.22;;
38089;SDS011;23904;52.322;10.232;2023-06-10T01:36:17;10.93;;;4.70;;
38089;SDS011;23904;52.322;10.232;2023-06-10T01:38:46;10.45;;;5.15;;
38089;SDS011;23904;52.322;10.232;2023-06-10T01:41:13;11.98;;;6.13;;
38089;SDS011;23904;52.322;10.232;2023-06-10T01:43:45;11.02;;;5.70;;
38089;SDS011;23904;52.322;10.232;2023-06-10T01:46:11;10.57;;;4.95;;
38089;SDS011;23904;52.322;10.232;2023-06-10T01:48:41;12.65;;;4.97;;
38089;SDS011;23904;52.322;10.232;2023-06-10T01:51:07;11.07;;;5.95;;
38089;SDS011;23904;52.322;10.232;2023-06-10T01:53:32;8.68;;;4.47;;
38089;SDS011;23904;52.322;10.232;2023-06-10T01:55:58;9.70;;;5.28;;
38089;SDS011;23904;52.322;10.232;2023-06-10T01:58:23;13.32;;;6.50;;
38089;SDS011;23904;52.322;10.232;2023-06-10T02:00:49;9.55;;;4.85;;
38089;SDS011;23904;52.322;10.232;2023-06-10T02:03:15;12.30;;;5.18;;
38089;SDS011;23904;52.322;10.232;2023-06-10T02:05:40;13.73;;;5.82;;
38089;SDS011;23904;52.322;10.232;2023-06-10T02:08:06;9.95;;;5.25;;
38089;SDS011;23904;52.322;10.232;2023-06-10T02:10:31;8.75;;;4.50;;
38089;SDS011;23904;52.322;10.232;2023-06-10T02:12:57;12.35;;;5.35;;
38089;SDS011;23904;52.322;10.232;2023-06-10T02:15:23;13.35;;;5.38;;
38089;SDS011;23904;52.322;10.232;2023-06-10T02:17:48;13.43;;;5.07;;
38089;SDS011;23904;52.322;10.232;2023-06-10T02:20:14;9.35;;;4.80;;
38089;SDS011;23904;52.322;10.232;2023-06-10T02:22:40;13.70;;;5.30;;
38089;SDS011;23904;52.322;10.232;2023-06-10T02:25:05;14.55;;;5.60;;
38089;SDS011;23904;52.322;10.232;2023-06-10T02:27:31;10.27;;;5.07;;
38089;SDS011;23904;52.322;10.232;2023-06-10T02:29:57;14.02;;;6.40;;
38089;SDS011;23904;52.322;10.232;2023-06-10T02:32:23;9.43;;;5.18;;
38089;SDS011;23904;52.322;10.232;2023-06-10T02:34:49;10.23;;;5.28;;
38089;SDS011;23904;52.322;10.232;2023-06-10T02:37:15;12.20;;;5.82;;
38089;SDS011;23904;52.322;10.232;2023-06-10T02:39:40;14.45;;;5.57;;
38089;SDS011;23904;52.322;10.232;2023-06-10T02:42:06;10.98;;;5.85;;
38089;SDS011;23904;52.322;10.232;2023-06-10T02:44:33;11.02;;;5.60;;
38089;SDS011;23904;52.322;10.232;2023-06-10T02:47:01;15.73;;;7.28;;
38089;SDS011;23904;52.322;10.232;2023-06-10T02:49:27;14.43;;;6.05;;
38089;SDS011;23904;52.322;10.232;2023-06-10T02:51:53;11.18;;;5.78;;
38089;SDS011;23904;52.322;10.232;2023-06-10T02:54:19;10.63;;;5.60;;
38089;SDS011;23904;52.322;10.232;2023-06-10T02:56:45;15.43;;;6.00;;
38089;SDS011;23904;52.322;10.232;2023-06-10T02:59:12;9.88;;;5.25;;
38089;SDS011;23904;52.322;10.232;2023-06-10T03:01:39;13.10;;;6.38;;
38089;SDS011;23904;52.322;10.232;2023-06-10T03:04:05;11.52;;;6.53;;
38089;SDS011;23904;52.322;10.232;2023-06-10T03:06:32;10.57;;;5.72;;
38089;SDS011;23904;52.322;10.232;2023-06-10T03:08:59;12.95;;;6.60;;
38089;SDS011;23904;52.322;10.232;2023-06-10T03:11:25;9.70;;;5.43;;
38089;SDS011;23904;52.322;10.232;2023-06-10T03:13:50;13.05;;;6.43;;
38089;SDS011;23904;52.322;10.232;2023-06-10T03:16:17;12.68;;;5.55;;
38089;SDS011;23904;52.322;10.232;2023-06-10T03:18:43;15.23;;;6.45;;
38089;SDS011;23904;52.322;10.232;2023-06-10T03:21:09;12.00;;;6.15;;
38089;SDS011;23904;52.322;10.232;2023-06-10T03:23:35;12.20;;;6.28;;
38089;SDS011;23904;52.322;10.232;2023-06-10T03:26:00;17.90;;;6.63;;
38089;SDS011;23904;52.322;10.232;2023-06-10T03:28:26;15.40;;;6.22;;
38089;SDS011;23904;52.322;10.232;2023-06-10T03:30:52;12.30;;;6.38;;
38089;SDS011;23904;52.322;10.232;2023-06-10T03:33:17;15.88;;;6.85;;
38089;SDS011;23904;52.322;10.232;2023-06-10T03:35:43;9.52;;;6.00;;
38089;SDS011;23904;52.322;10.232;2023-06-10T03:38:08;12.95;;;6.50;;
38089;SDS011;23904;52.322;10.232;2023-06-10T03:40:34;13.70;;;6.72;;
38089;SDS011;23904;52.322;10.232;2023-06-10T03:43:00;14.00;;;6.60;;
38089;SDS011;23904;52.322;10.232;2023-06-10T03:45:26;13.82;;;7.05;;
38089;SDS011;23904;52.322;10.232;2023-06-10T03:47:53;14.00;;;7.20;;
38089;SDS011;23904;52.322;10.232;2023-06-10T03:50:18;11.18;;;6.80;;
38089;SDS011;23904;52.322;10.232;2023-06-10T03:52:44;13.90;;;7.57;;
38089;SDS011;23904;52.322;10.232;2023-06-10T03:55:11;16.17;;;7.40;;
38089;SDS011;23904;52.322;10.232;2023-06-10T03:57:38;15.48;;;7.40;;
38089;SDS011;23904;52.322;10.232;2023-06-10T04:00:04;17.85;;;8.15;;
38089;SDS011;23904;52.322;10.232;2023-06-10T04:02:37;14.40;;;7.87;;
38089;SDS011;23904;52.322;10.232;2023-06-10T04:05:10;11.95;;;7.15;;
38089;SDS011;23904;52.322;10.232;2023-06-10T04:07:42;19.17;;;7.78;;
38089;SDS011;23904;52.322;10.232;2023-06-10T04:10:09;16.55;;;9.00;;
38089;SDS011;23904;52.322;10.232;2023-06-10T04:12:36;19.08;;;6.60;;
38089;SDS011;23904;52.322;10.232;2023-06-10T04:15:02;16.95;;;8.48;;
38089;SDS011;23904;52.322;10.232;2023-06-10T04:17:29;16.30;;;7.75;;
38089;SDS011;23904;52.322;10.232;2023-06-10T04:19:55;15.45;;;7.32;;
38089;SDS011;23904;52.322;10.232;2023-06-10T04:22:21;12.80;;;7.20;;
38089;SDS011;23904;52.322;10.232;2023-06-10T04:24:47;13.30;;;7.10;;
38089;SDS011;23904;52.322;10.232;2023-06-10T04:27:13;12.73;;;6.63;;
38089;SDS011;23904;52.322;10.232;2023-06-10T04:29:39;14.65;;;7.15;;
38089;SDS011;23904;52.322;10.232;2023-06-10T04:32:05;14.90;;;7.75;;
38089;SDS011;23904;52.322;10.232;2023-06-10T04:34:32;14.13;;;7.65;;
38089;SDS011;23904;52.322;10.232;2023-06-10T04:36:58;10.35;;;6.50;;
38089;SDS011;23904;52.322;10.232;2023-06-10T04:39:25;17.05;;;8.20;;
38089;SDS011;23904;52.322;10.232;2023-06-10T04:41:50;16.42;;;8.52;;
38089;SDS011;23904;52.322;10.232;2023-06-10T04:44:16;13.30;;;7.40;;
38089;SDS011;23904;52.322;10.232;2023-06-10T04:46:42;18.67;;;8.48;;
38089;SDS011;23904;52.322;10.232;2023-06-10T04:49:08;13.98;;;6.90;;
38089;SDS011;23904;52.322;10.232;2023-06-10T04:51:33;12.80;;;7.63;;
38089;SDS011;23904;52.322;10.232;2023-06-10T04:53:59;14.57;;;7.70;;
38089;SDS011;23904;52.322;10.232;2023-06-10T04:56:28;13.70;;;7.43;;
38089;SDS011;23904;52.322;10.232;2023-06-10T04:58:55;12.25;;;6.78;;
38089;SDS011;23904;52.322;10.232;2023-06-10T05:01:21;17.67;;;7.53;;
38089;SDS011;23904;52.322;10.232;2023-06-10T05:03:47;15.18;;;6.93;;
38089;SDS011;23904;52.322;10.232;2023-06-10T05:06:13;14.00;;;6.88;;
38089;SDS011;23904;52.322;10.232;2023-06-10T05:08:38;10.60;;;6.93;;
38089;SDS011;23904;52.322;10.232;2023-06-10T05:11:03;18.08;;;6.95;;
38089;SDS011;23904;52.322;10.232;2023-06-10T05:13:29;18.02;;;7.70;;
38089;SDS011;23904;52.322;10.232;2023-06-10T05:15:54;14.25;;;7.18;;
38089;SDS011;23904;52.322;10.232;2023-06-10T05:18:20;16.13;;;7.55;;
38089;SDS011;23904;52.322;10.232;2023-06-10T05:20:46;18.00;;;8.57;;
38089;SDS011;23904;52.322;10.232;2023-06-10T05:23:11;16.30;;;7.57;;
38089;SDS011;23904;52.322;10.232;2023-06-10T05:25:37;19.27;;;6.85;;
38089;SDS011;23904;52.322;10.232;2023-06-10T05:28:02;13.50;;;7.53;;
38089;SDS011;23904;52.322;10.232;2023-06-10T05:30:28;17.80;;;6.72;;
38089;SDS011;23904;52.322;10.232;2023-06-10T05:32:54;15.02;;;6.80;;
38089;SDS011;23904;52.322;10.232;2023-06-10T05:35:21;13.43;;;7.13;;
38089;SDS011;23904;52.322;10.232;2023-06-10T05:37:46;17.70;;;7.18;;
38089;SDS011;23904;52.322;10.232;2023-06-10T05:40:12;13.60;;;7.88;;
38089;SDS011;23904;52.322;10.232;2023-06-10T05:42:38;15.32;;;7.18;;
38089;SDS011;23904;52.322;10.232;2023-06-10T05:45:05;21.38;;;7.80;;
38089;SDS011;23904;52.322;10.232;2023-06-10T05:47:31;12.57;;;6.97;;
38089;SDS011;23904;52.322;10.232;2023-06-10T05:49:57;15.23;;;6.25;;
38089;SDS011;23904;52.322;10.232;2023-06-10T05:52:22;13.15;;;7.13;;
38089;SDS011;23904;52.322;10.232;2023-06-10T05:54:48;17.58;;;6.40;;
38089;SDS011;23904;52.322;10.232;2023-06-10T05:57:15;16.45;;;7.00;;
38089;SDS011;23904;52.322;10.232;2023-06-10T05:59:40;17.25;;;6.70;;
38089;SDS011;23904;52.322;10.232;2023-06-10T06:02:06;18.33;;;7.22;;
38089;SDS011;23904;52.322;10.232;2023-06-10T06:04:31;18.20;;;7.00;;
38089;SDS011;23904;52.322;10.232;2023-06-10T06:06:57;16.33;;;7.57;;
38089;SDS011;23904;52.322;10.232;2023-06-10T06:09:23;16.65;;;7.20;;
38089;SDS011;23904;52.322;10.232;2023-06-10T06:11:48;18.08;;;7.35;;
38089;SDS011;23904;52.322;10.232;2023-06-10T06:14:14;18.23;;;7.97;;
38089;SDS011;23904;52.322;10.232;2023-06-10T06:16:39;16.27;;;7.65;;
38089;SDS011;23904;52.322;10.232;2023-06-10T06:19:05;16.73;;;7.15;;
38089;SDS011;23904;52.322;10.232;2023-06-10T06:21:31;15.80;;;7.07;;
38089;SDS011;23904;52.322;10.232;2023-06-10T06:23:56;13.07;;;6.43;;
38089;SDS011;23904;52.322;10.232;2023-06-10T06:26:22;11.90;;;6.50;;
38089;SDS011;23904;52.322;10.232;2023-06-10T06:28:48;14.68;;;7.13;;
38089;SDS011;23904;52.322;10.232;2023-06-10T06:31:13;20.83;;;7.97;;
38089;SDS011;23904;52.322;10.232;2023-06-10T06:33:39;15.43;;;6.70;;
38089;SDS011;23904;52.322;10.232;2023-06-10T06:36:05;16.33;;;6.75;;
38089;SDS011;23904;52.322;10.232;2023-06-10T06:38:30;13.82;;;6.55;;
38089;SDS011;23904;52.322;10.232;2023-06-10T06:40:56;14.00;;;6.30;;
38089;SDS011;23904;52.322;10.232;2023-06-10T06:43:21;15.50;;;5.95;;
38089;SDS011;23904;52.322;10.232;2023-06-10T06:45:47;13.95;;;7.20;;
38089;SDS011;23904;52.322;10.232;2023-06-10T06:48:12;13.27;;;6.75;;
38089;SDS011;23904;52.322;10.232;2023-06-10T06:50:38;12.10;;;6.25;;
38089;SDS011;23904;52.322;10.232;2023-06-10T06:53:04;12.80;;;6.22;;
38089;SDS011;23904;52.322;10.232;2023-06-10T06:55:30;14.73;;;7.25;;
38089;SDS011;23904;52.322;10.232;2023-06-10T06:57:56;13.52;;;6.57;;
38089;SDS011;23904;52.322;10.232;2023-06-10T07:00:21;10.02;;;5.75;;
38089;SDS011;23904;52.322;10.232;2023-06-10T07:02:47;16.48;;;6.40;;
38089;SDS011;23904;52.322;10.232;2023-06-10T07:05:13;13.02;;;6.10;;
38089;SDS011;23904;52.322;10.232;2023-06-10T07:07:39;15.65;;;6.50;;
38089;SDS011;23904;52.322;10.232;2023-06-10T07:10:05;16.10;;;7.97;;
38089;SDS011;23904;52.322;10.232;2023-06-10T07:12:31;18.52;;;7.80;;
38089;SDS011;23904;52.322;10.232;2023-06-10T07:14:56;11.25;;;6.15;;
38089;SDS011;23904;52.322;10.232;2023-06-10T07:17:22;16.42;;;6.25;;
38089;SDS011;23904;52.322;10.232;2023-06-10T07:19:47;16.17;;;6.93;;
38089;SDS011;23904;52.322;10.232;2023-06-10T07:22:13;14.95;;;6.88;;
38089;SDS011;23904;52.322;10.232;2023-06-10T07:24:39;18.02;;;6.22;;
38089;SDS011;23904;52.322;10.232;2023-06-10T07:27:05;14.18;;;7.22;;
38089;SDS011;23904;52.322;10.232;2023-06-10T07:29:32;15.73;;;6.90;;
38089;SDS011;23904;52.322;10.232;2023-06-10T07:31:57;17.90;;;6.50;;
38089;SDS011;23904;52.322;10.232;2023-06-10T07:34:23;14.32;;;6.18;;
38089;SDS011;23904;52.322;10.232;2023-06-10T07:36:48;13.98;;;7.50;;
38089;SDS011;23904;52.322;10.232;2023-06-10T07:39:14;11.55;;;6.07;;
38089;SDS011;23904;52.322;10.232;2023-06-10T07:41:39;18.33;;;6.03;;
38089;SDS011;23904;52.322;10.232;2023-06-10T07:44:05;16.20;;;6.70;;
38089;SDS011;23904;52.322;10.232;2023-06-10T07:46:30;11.93;;;6.15;;
38089;SDS011;23904;52.322;10.232;2023-06-10T07:48:56;14.35;;;6.93;;
38089;SDS011;23904;52.322;10.232;2023-06-10T07:51:21;13.50;;;5.70;;
38089;SDS011;23904;52.322;10.232;2023-06-10T07:53:47;16.00;;;6.32;;
38089;SDS011;23904;52.322;10.232;2023-06-10T07:56:13;15.90;;;6.47;;
38089;SDS011;23904;52.322;10.232;2023-06-10T07:58:38;15.35;;;6.22;;
38089;SDS011;23904;52.322;10.232;2023-06-10T08:01:04;12.88;;;6.00;;
38089;SDS011;23904;52.322;10.232;2023-06-10T08:03:30;13.10;;;6.20;;
38089;SDS011;23904;52.322;10.232;2023-06-10T08:05:55;15.57;;;7.47;;
38089;SDS011;23904;52.322;10.232;2023-06-10T08:08:21;15.32;;;7.05;;
38089;SDS011;23904;52.322;10.232;2023-06-10T08:10:46;14.70;;;6.57;;
38089;SDS011;23904;52.322;10.232;2023-06-10T08:13:12;16.88;;;7.38;;
38089;SDS011;23904;52.322;10.232;2023-06-10T08:15:38;10.98;;;5.63;;
38089;SDS011;23904;52.322;10.232;2023-06-10T08:18:04;16.80;;;7.53;;
38089;SDS011;23904;52.322;10.232;2023-06-10T08:20:29;16.63;;;6.28;;
38089;SDS011;23904;52.322;10.232;2023-06-10T08:22:55;12.10;;;5.97;;
38089;SDS011;23904;52.322;10.232;2023-06-10T08:25:20;9.35;;;5.57;;
38089;SDS011;23904;52.322;10.232;2023-06-10T08:27:49;14.77;;;6.53;;
38089;SDS011;23904;52.322;10.232;2023-06-10T08:30:15;13.88;;;5.63;;
38089;SDS011;23904;52.322;10.232;2023-06-10T08:32:41;12.50;;;6.45;;
38089;SDS011;23904;52.322;10.232;2023-06-10T08:35:07;12.82;;;6.20;;
38089;SDS011;23904;52.322;10.232;2023-06-10T08:37:33;13.93;;;6.47;;
38089;SDS011;23904;52.322;10.232;2023-06-10T08:39:58;11.88;;;6.57;;
38089;SDS011;23904;52.322;10.232;2023-06-10T08:42:33;12.07;;;5.45;;
38089;SDS011;23904;52.322;10.232;2023-06-10T08:45:05;13.30;;;6.78;;
38089;SDS011;23904;52.322;10.232;2023-06-10T08:47:37;13.70;;;5.97;;
38089;SDS011;23904;52.322;10.232;2023-06-10T08:50:07;11.98;;;6.28;;
38089;SDS011;23904;52.322;10.232;2023-06-10T08:52:36;13.82;;;6.82;;
38089;SDS011;23904;52.322;10.232;2023-06-10T08:55:04;16.92;;;6.45;;
38089;SDS011;23904;52.322;10.232;2023-06-10T08:57:40;14.35;;;6.22;;
38089;SDS011;23904;52.322;10.232;2023-06-10T09:00:07;13.77;;;5.57;;
38089;SDS011;23904;52.322;10.232;2023-06-10T09:02:34;10.35;;;4.75;;
38089;SDS011;23904;52.322;10.232;2023-06-10T09:05:00;12.23;;;5.20;;
38089;SDS011;23904;52.322;10.232;2023-06-10T09:07:27;11.18;;;5.78;;
38089;SDS011;23904;52.322;10.232;2023-06-10T09:10:01;8.95;;;4.80;;
38089;SDS011;23904;52.322;10.232;2023-06-10T09:12:29;12.38;;;4.78;;
38089;SDS011;23904;52.322;10.232;2023-06-10T09:14:55;12.55;;;5.55;;
38089;SDS011;23904;52.322;10.232;2023-06-10T09:17:21;11.25;;;4.95;;
38089;SDS011;23904;52.322;10.232;2023-06-10T09:19:47;10.98;;;5.18;;
38089;SDS011;23904;52.322;10.232;2023-06-10T09:22:13;8.27;;;4.75;;
38089;SDS011;23904;52.322;10.232;2023-06-10T09:24:39;7.65;;;4.18;;
38089;SDS011;23904;52.322;10.232;2023-06-10T09:27:06;7.00;;;4.70;;
38089;SDS011;23904;52.322;10.232;2023-06-10T09:32:19;11.45;;;4.70;;
38089;SDS011;23904;52.322;10.232;2023-06-10T09:34:46;9.25;;;4.93;;
38089;SDS011;23904;52.322;10.232;2023-06-10T09:37:12;9.50;;;4.85;;
38089;SDS011;23904;52.322;10.232;2023-06-10T09:39:39;7.72;;;4.90;;
38089;SDS011;23904;52.322;10.232;2023-06-10T09:42:17;7.57;;;4.40;;
38089;SDS011;23904;52.322;10.232;2023-06-10T09:44:50;10.18;;;5.18;;
38089;SDS011;23904;52.322;10.232;2023-06-10T09:47:20;10.00;;;4.65;;
38089;SDS011;23904;52.322;10.232;2023-06-10T09:49:47;7.60;;;4.80;;
38089;SDS011;23904;52.322;10.232;2023-06-10T09:52:14;8.65;;;4.90;;
38089;SDS011;23904;52.322;10.232;2023-06-10T09:54:47;10.25;;;4.57;;
38089;SDS011;23904;52.322;10.232;2023-06-10T09:57:13;8.60;;;4.57;;
38089;SDS011;23904;52.322;10.232;2023-06-10T09:59:39;8.00;;;5.07;;
38089;SDS011;23904;52.322;10.232;2023-06-10T10:02:06;8.75;;;4.75;;
38089;SDS011;23904;52.322;10.232;2023-06-10T10:04:31;8.60;;;4.55;;
38089;SDS011;23904;52.322;10.232;2023-06-10T10:07:00;11.98;;;4.85;;
38089;SDS011;23904;52.322;10.232;2023-06-10T10:09:26;8.00;;;4.82;;
38089;SDS011;23904;52.322;10.232;2023-06-10T10:11:51;7.00;;;4.15;;
38089;SDS011;23904;52.322;10.232;2023-06-10T10:14:18;14.50;;;5.43;;
38089;SDS011;23904;52.322;10.232;2023-06-10T10:16:46;7.45;;;4.60;;
38089;SDS011;23904;52.322;10.232;2023-06-10T10:19:18;10.93;;;4.65;;
38089;SDS011;23904;52.322;10.232;2023-06-10T10:21:50;10.00;;;4.40;;
38089;SDS011;23904;52.322;10.232;2023-06-10T10:24:20;11.57;;;4.60;;
38089;SDS011;23904;52.322;10.232;2023-06-10T10:26:48;7.95;;;4.45;;
38089;SDS011;23904;52.322;10.232;2023-06-10T10:29:27;8.48;;;5.25;;
38089;SDS011;23904;52.322;10.232;2023-06-10T10:31:59;7.72;;;4.18;;
38089;SDS011;23904;52.322;10.232;2023-06-10T10:34:30;6.00;;;4.13;;
38089;SDS011;23904;52.322;10.232;2023-06-10T10:37:15;7.13;;;5.05;;
38089;SDS011;23904;52.322;10.232;2023-06-10T10:39:42;8.55;;;5.03;;
38089;SDS011;23904;52.322;10.232;2023-06-10T10:42:09;8.75;;;4.30;;
38089;SDS011;23904;52.322;10.232;2023-06-10T10:44:37;7.22;;;4.65;;
38089;SDS011;23904;52.322;10.232;2023-06-10T10:47:03;13.80;;;5.00;;
38089;SDS011;23904;52.322;10.232;2023-06-10T10:49:33;6.65;;;4.50;;
38089;SDS011;23904;52.322;10.232;2023-06-10T10:52:01;8.70;;;4.82;;
38089;SDS011;23904;52.322;10.232;2023-06-10T10:54:33;8.32;;;5.18;;
38089;SDS011;23904;52.322;10.232;2023-06-10T10:57:10;7.40;;;4.90;;
38089;SDS011;23904;52.322;10.232;2023-06-10T11:02:18;11.35;;;5.18;;
38089;SDS011;23904;52.322;10.232;2023-06-10T11:04:56;9.45;;;4.68;;
38089;SDS011;23904;52.322;10.232;2023-06-10T11:07:25;9.75;;;4.97;;
38089;SDS011;23904;52.322;10.232;2023-06-10T11:09:57;9.68;;;4.53;;
38089;SDS011;23904;52.322;10.232;2023-06-10T11:12:47;10.10;;;5.07;;
38089;SDS011;23904;52.322;10.232;2023-06-10T11:15:22;6.22;;;4.93;;
38089;SDS011;23904;52.322;10.232;2023-06-10T11:20:58;6.97;;;4.45;;
38089;SDS011;23904;52.322;10.232;2023-06-10T11:31:20;9.35;;;5.05;;
38089;SDS011;23904;52.322;10.232;2023-06-10T11:34:00;8.85;;;4.97;;
38089;SDS011;23904;52.322;10.232;2023-06-10T11:36:31;8.20;;;4.53;;
38089;SDS011;23904;52.322;10.232;2023-06-10T11:38:59;9.05;;;5.32;;
38089;SDS011;23904;52.322;10.232;2023-06-10T11:41:28;6.78;;;5.03;;
38089;SDS011;23904;52.322;10.232;2023-06-10T11:43:56;8.48;;;5.28;;
38089;SDS011;23904;52.322;10.232;2023-06-10T11:46:27;6.70;;;4.75;;
38089;SDS011;23904;52.322;10.232;2023-06-10T11:48:54;6.68;;;4.75;;
38089;SDS011;23904;52.322;10.232;2023-06-10T11:51:21;7.72;;;5.10;;
38089;SDS011;23904;52.322;10.232;2023-06-10T11:53:50;8.73;;;4.88;;
38089;SDS011;23904;52.322;10.232;2023-06-10T11:56:22;7.93;;;5.00;;
38089;SDS011;23904;52.322;10.232;2023-06-10T12:01:29;10.20;;;5.07;;
38089;SDS011;23904;52.322;10.232;2023-06-10T12:03:58;9.35;;;5.15;;
38089;SDS011;23904;52.322;10.232;2023-06-10T12:09:07;11.82;;;4.97;;
38089;SDS011;23904;52.322;10.232;2023-06-10T12:11:39;6.78;;;4.65;;
38089;SDS011;23904;52.322;10.232;2023-06-10T12:14:04;9.30;;;5.50;;
38089;SDS011;23904;52.322;10.232;2023-06-10T12:16:30;8.05;;;5.20;;
38089;SDS011;23904;52.322;10.232;2023-06-10T12:19:00;10.95;;;6.20;;
38089;SDS011;23904;52.322;10.232;2023-06-10T12:21:31;7.75;;;5.40;;
38089;SDS011;23904;52.322;10.232;2023-06-10T12:24:00;10.82;;;5.18;;
38089;SDS011;23904;52.322;10.232;2023-06-10T12:29:16;12.43;;;5.68;;
38089;SDS011;23904;52.322;10.232;2023-06-10T12:31:52;8.90;;;5.80;;
38089;SDS011;23904;52.322;10.232;2023-06-10T12:34:18;7.72;;;5.05;;
38089;SDS011;23904;52.322;10.232;2023-06-10T12:36:48;9.45;;;5.00;;
38089;SDS011;23904;52.322;10.232;2023-06-10T12:39:14;9.50;;;6.00;;
38089;SDS011;23904;52.322;10.232;2023-06-10T12:41:40;7.07;;;4.90;;
38089;SDS011;23904;52.322;10.232;2023-06-10T12:44:05;12.90;;;6.05;;
38089;SDS011;23904;52.322;10.232;2023-06-10T12:46:37;8.98;;;5.97;;
38089;SDS011;23904;52.322;10.232;2023-06-10T12:49:03;7.43;;;5.25;;
38089;SDS011;23904;52.322;10.232;2023-06-10T12:51:28;11.85;;;6.43;;
38089;SDS011;23904;52.322;10.232;2023-06-10T12:53:54;8.23;;;5.57;;
38089;SDS011;23904;52.322;10.232;2023-06-10T12:56:20;15.02;;;6.20;;
38089;SDS011;23904;52.322;10.232;2023-06-10T12:58:47;10.95;;;6.30;;
38089;SDS011;23904;52.322;10.232;2023-06-10T13:01:13;10.10;;;5.70;;
38089;SDS011;23904;52.322;10.232;2023-06-10T13:03:38;9.35;;;5.88;;
38089;SDS011;23904;52.322;10.232;2023-06-10T13:06:05;12.32;;;6.13;;
38089;SDS011;23904;52.322;10.232;2023-06-10T13:08:31;15.05;;;6.97;;
38089;SDS011;23904;52.322;10.232;2023-06-10T13:10:57;12.88;;;6.70;;
38089;SDS011;23904;52.322;10.232;2023-06-10T13:13:23;12.30;;;6.28;;
38089;SDS011;23904;52.322;10.232;2023-06-10T13:15:49;11.73;;;7.13;;
38089;SDS011;23904;52.322;10.232;2023-06-10T13:18:15;17.05;;;7.40;;
38089;SDS011;23904;52.322;10.232;2023-06-10T13:20:43;9.07;;;6.40;;
38089;SDS011;23904;52.322;10.232;2023-06-10T13:23:09;9.38;;;6.65;;
38089;SDS011;23904;52.322;10.232;2023-06-10T13:25:35;11.10;;;6.63;;
38089;SDS011;23904;52.322;10.232;2023-06-10T13:28:00;9.73;;;6.75;;
38089;SDS011;23904;52.322;10.232;2023-06-10T13:30:26;9.38;;;6.25;;
38089;SDS011;23904;52.322;10.232;2023-06-10T13:32:52;16.27;;;6.72;;
38089;SDS011;23904;52.322;10.232;2023-06-10T13:35:17;9.95;;;6.47;;
38089;SDS011;23904;52.322;10.232;2023-06-10T13:37:43;9.10;;;6.70;;
38089;SDS011;23904;52.322;10.232;2023-06-10T13:40:09;13.05;;;7.20;;
38089;SDS011;23904;52.322;10.232;2023-06-10T13:42:35;14.07;;;7.28;;
38089;SDS011;23904;52.322;10.232;2023-06-10T13:45:02;9.25;;;6.13;;
38089;SDS011;23904;52.322;10.232;2023-06-10T13:47:29;13.15;;;6.28;;
38089;SDS011;23904;52.322;10.232;2023-06-10T13:49:55;8.27;;;6.57;;
38089;SDS011;23904;52.322;10.232;2023-06-10T13:52:20;11.27;;;6.75;;
38089;SDS011;23904;52.322;10.232;2023-06-10T13:54:46;12.27;;;7.30;;
38089;SDS011;23904;52.322;10.232;2023-06-10T13:57:11;9.45;;;6.28;;
38089;SDS011;23904;52.322;10.232;2023-06-10T13:59:37;9.60;;;6.80;;
38089;SDS011;23904;52.322;10.232;2023-06-10T14:02:02;10.93;;;6.43;;
38089;SDS011;23904;52.322;10.232;2023-06-10T14:04:29;13.90;;;6.97;;
38089;SDS011;23904;52.322;10.232;2023-06-10T14:06:55;12.75;;;6.25;;
38089;SDS011;23904;52.322;10.232;2023-06-10T14:09:22;10.57;;;6.93;;
38089;SDS011;23904;52.322;10.232;2023-06-10T14:11:47;8.70;;;6.78;;
38089;SDS011;23904;52.322;10.232;2023-06-10T14:14:13;10.60;;;7.75;;
38089;SDS011;23904;52.322;10.232;2023-06-10T14:16:39;11.57;;;7.20;;
38089;SDS011;23904;52.322;10.232;2023-06-10T14:19:05;9.65;;;6.90;;
38089;SDS011;23904;52.322;10.232;2023-06-10T14:21:31;11.80;;;6.65;;
38089;SDS011;23904;52.322;10.232;2023-06-10T14:23:56;7.35;;;6.22;;
38089;SDS011;23904;52.322;10.232;2023-06-10T14:26:22;8.10;;;6.50;;
38089;SDS011;23904;52.322;10.232;2023-06-10T14:28:47;9.55;;;6.72;;
38089;SDS011;23904;52.322;10.232;2023-06-10T14:31:14;11.52;;;6.50;;
38089;SDS011;23904;52.322;10.232;2023-06-10T14:33:41;13.07;;;6.97;;
38089;SDS011;23904;52.322;10.232;2023-06-10T14:36:08;10.88;;;6.28;;
38089;SDS011;23904;52.322;10.232;2023-06-10T14:38:34;12.13;;;6.70;;
38089;SDS011;23904;52.322;10.232;2023-06-10T14:41:00;10.13;;;6.82;;
38089;SDS011;23904;52.322;10.232;2023-06-10T14:43:26;9.07;;;6.80;;
38089;SDS011;23904;52.322;10.232;2023-06-10T14:45:51;10.98;;;6.35;;
38089;SDS011;23904;52.322;10.232;2023-06-10T14:48:17;10.05;;;6.00;;
38089;SDS011;23904;52.322;10.232;2023-06-10T14:50:42;12.30;;;7.18;;
38089;SDS011;23904;52.322;10.232;2023-06-10T14:53:10;10.57;;;7.00;;
38089;SDS011;23904;52.322;10.232;2023-06-10T14:55:36;9.63;;;6.70;;
38089;SDS011;23904;52.322;10.232;2023-06-10T14:58:01;8.38;;;6.40;;
38089;SDS011;23904;52.322;10.232;2023-06-10T15:00:27;9.40;;;6.80;;